createdAt,value
2019-02-18T00:00:01.263Z,9.40
2019-02-18T00:01:01.241Z,10.20
2019-02-18T00:02:01.225Z,8.70
2019-02-18T00:03:01.209Z,8.80
2019-02-18T00:04:01.194Z,9.70
2019-02-18T00:05:01.179Z,9.60
2019-02-18T00:06:01.162Z,10.30
2019-02-18T00:07:01.146Z,9.90
2019-02-18T00:08:01.130Z,13.20
2019-02-18T00:09:01.122Z,8.90
2019-02-18T00:10:01.171Z,8.70
2019-02-18T00:11:01.087Z,9.00
2019-02-18T00:12:01.069Z,9.70
2019-02-18T00:13:01.054Z,8.10
2019-02-18T00:14:01.039Z,9.80
2019-02-18T00:15:01.027Z,7.80
2019-02-18T00:16:01.005Z,8.00
2019-02-18T00:17:00.996Z,8.80
2019-02-18T00:18:00.975Z,9.60
2019-02-18T00:19:00.960Z,7.50
2019-02-18T00:20:00.949Z,9.50
2019-02-18T00:21:00.932Z,8.30
2019-02-18T00:22:00.915Z,8.10
2019-02-18T00:23:00.905Z,7.90
2019-02-18T00:24:00.887Z,7.80
2019-02-18T00:25:00.870Z,8.10
2019-02-18T00:26:00.853Z,10.30
2019-02-18T00:27:00.837Z,9.40
2019-02-18T00:28:00.823Z,9.20
2019-02-18T00:29:00.871Z,8.40
2019-02-18T00:30:00.793Z,8.20
2019-02-18T00:31:00.776Z,10.30
2019-02-18T00:32:00.760Z,9.50
2019-02-18T00:33:00.745Z,10.10
2019-02-18T00:34:00.728Z,8.00
2019-02-18T00:35:00.714Z,9.90
2019-02-18T00:36:00.703Z,8.30
2019-02-18T00:37:00.685Z,8.90
2019-02-18T00:38:00.667Z,8.40
2019-02-18T00:39:00.649Z,9.00
2019-02-18T00:40:00.636Z,8.00
2019-02-18T00:41:00.619Z,9.70
2019-02-18T00:42:00.603Z,9.50
2019-02-18T00:43:00.587Z,9.30
2019-02-18T00:44:00.573Z,8.40
2019-02-18T00:45:00.561Z,8.50
2019-02-18T00:46:00.544Z,7.60
2019-02-18T00:47:00.523Z,9.80
2019-02-18T00:48:00.508Z,10.60
2019-02-18T00:49:00.493Z,9.30
2019-02-18T00:50:00.482Z,8.30
2019-02-18T00:51:00.461Z,8.50
2019-02-18T00:52:00.452Z,9.80
2019-02-18T00:53:00.435Z,8.50
2019-02-18T00:54:00.417Z,8.80
2019-02-18T00:55:00.445Z,8.40
2019-02-18T00:56:00.383Z,9.80
2019-02-18T00:57:00.370Z,7.90
2019-02-18T00:58:00.352Z,8.80
2019-02-18T00:59:00.336Z,10.70
2019-02-18T01:00:00.324Z,8.60
2019-02-18T01:01:00.306Z,8.50
2019-02-18T01:02:00.291Z,9.40
2019-02-18T01:03:00.271Z,9.60
2019-02-18T01:04:00.259Z,7.90
2019-02-18T01:05:00.294Z,10.60
2019-02-18T01:06:00.227Z,10.40
2019-02-18T01:07:00.210Z,9.30
2019-02-18T01:08:00.195Z,8.00
2019-02-18T01:09:00.179Z,10.30
2019-02-18T01:10:00.331Z,8.60
2019-02-18T01:11:00.146Z,8.70
2019-02-18T01:12:00.129Z,8.10
2019-02-18T01:13:00.116Z,8.60
2019-02-18T01:14:00.099Z,8.70
2019-02-18T01:15:00.324Z,10.00
2019-02-18T01:16:00.067Z,9.50
2019-02-18T01:17:00.059Z,10.70
2019-02-18T01:18:00.040Z,8.00
2019-02-18T01:19:00.021Z,10.30
2019-02-18T01:20:00.005Z,9.10
2019-02-18T01:20:59.989Z,9.80
2019-02-18T01:21:59.971Z,9.50
2019-02-18T01:22:59.955Z,10.10
2019-02-18T01:23:59.939Z,8.80
2019-02-18T01:24:59.923Z,9.10
2019-02-18T01:25:59.911Z,10.20
2019-02-18T01:26:59.896Z,10.00
2019-02-18T01:27:59.875Z,9.20
2019-02-18T01:28:59.859Z,9.30
2019-02-18T01:29:59.844Z,10.50
2019-02-18T01:30:59.827Z,8.40
2019-02-18T01:31:59.812Z,9.10
2019-02-18T01:32:59.797Z,9.60
2019-02-18T01:33:59.782Z,9.30
2019-02-18T01:34:59.767Z,8.30
2019-02-18T01:35:59.748Z,10.10
2019-02-18T01:36:59.734Z,10.00
2019-02-18T01:37:59.718Z,9.80
2019-02-18T01:38:59.702Z,8.70
2019-02-18T01:39:59.687Z,9.90
2019-02-18T01:40:59.669Z,7.80
2019-02-18T01:41:59.654Z,8.70
2019-02-18T01:42:59.636Z,10.10
2019-02-18T01:43:59.620Z,10.80
2019-02-18T01:44:59.604Z,7.80
2019-02-18T01:45:59.588Z,8.50
2019-02-18T01:46:59.571Z,8.80
2019-02-18T01:47:59.555Z,9.40
2019-02-18T01:48:59.540Z,9.50
2019-02-18T01:49:59.524Z,8.40
2019-02-18T01:50:59.508Z,8.70
2019-02-18T01:51:59.492Z,8.70
2019-02-18T01:52:59.475Z,7.70
2019-02-18T01:53:59.461Z,7.90
2019-02-18T01:54:59.443Z,8.00
2019-02-18T01:55:59.426Z,8.70
2019-02-18T01:56:59.411Z,9.20
2019-02-18T01:57:59.395Z,8.60
2019-02-18T01:58:59.378Z,7.90
2019-02-18T01:59:59.363Z,8.20
2019-02-18T02:00:59.346Z,8.00
2019-02-18T02:01:59.330Z,8.20
2019-02-18T02:02:59.313Z,10.90
2019-02-18T02:03:59.298Z,9.90
2019-02-18T02:04:59.281Z,8.50
2019-02-18T02:05:59.275Z,8.10
2019-02-18T02:06:59.249Z,9.00
2019-02-18T02:07:59.235Z,7.90
2019-02-18T02:08:59.220Z,12.20
2019-02-18T02:09:59.202Z,8.60
2019-02-18T02:10:59.185Z,8.30
2019-02-18T02:11:59.169Z,8.30
2019-02-18T02:12:59.153Z,10.90
2019-02-18T02:13:59.139Z,8.30
2019-02-18T02:14:59.120Z,8.30
2019-02-18T02:15:59.105Z,10.30
2019-02-18T02:16:59.091Z,9.00
2019-02-18T02:17:59.072Z,10.20
2019-02-18T02:18:59.054Z,9.20
2019-02-18T02:19:59.038Z,9.80
2019-02-18T02:20:59.023Z,10.40
2019-02-18T02:21:59.012Z,9.10
2019-02-18T02:22:58.990Z,8.00
2019-02-18T02:23:58.974Z,9.60
2019-02-18T02:24:58.958Z,12.10
2019-02-18T02:25:58.943Z,8.90
2019-02-18T02:26:58.926Z,9.40
2019-02-18T02:27:58.919Z,9.20
2019-02-18T02:28:58.893Z,9.80
2019-02-18T02:29:58.880Z,8.80
2019-02-18T02:31:00.982Z,10.70
2019-02-18T02:31:58.851Z,9.40
2019-02-18T02:32:58.829Z,9.10
2019-02-18T02:33:58.814Z,10.80
2019-02-18T02:34:58.798Z,8.80
2019-02-18T02:35:58.781Z,9.70
2019-02-18T02:36:58.766Z,8.10
2019-02-18T02:38:07.412Z,11.20
2019-02-18T02:38:58.732Z,9.40
2019-02-18T02:39:58.718Z,14.60
2019-02-18T02:40:58.702Z,10.40
2019-02-18T02:41:58.683Z,11.40
2019-02-18T02:42:58.665Z,10.00
2019-02-18T02:43:58.650Z,11.20
2019-02-18T02:44:58.635Z,8.10
2019-02-18T02:45:58.617Z,10.10
2019-02-18T02:46:58.603Z,12.20
2019-02-18T02:47:58.586Z,11.00
2019-02-18T02:48:58.568Z,10.20
2019-02-18T02:49:58.551Z,8.90
2019-02-18T02:50:58.585Z,9.20
2019-02-18T02:51:58.518Z,10.00
2019-02-18T02:52:58.506Z,8.80
2019-02-18T02:53:58.486Z,9.60
2019-02-18T02:54:58.472Z,9.60
2019-02-18T02:55:58.451Z,8.80
2019-02-18T02:56:58.436Z,8.30
2019-02-18T02:57:58.420Z,8.60
2019-02-18T02:58:58.403Z,10.90
2019-02-18T02:59:58.387Z,10.80
2019-02-18T03:00:58.371Z,10.10
2019-02-18T03:01:58.356Z,9.20
2019-02-18T03:02:58.337Z,9.80
2019-02-18T03:03:58.327Z,11.90
2019-02-18T03:04:58.307Z,10.90
2019-02-18T03:05:58.290Z,9.60
2019-02-18T03:06:58.274Z,10.10
2019-02-18T03:07:58.258Z,10.60
2019-02-18T03:08:58.239Z,7.80
2019-02-18T03:09:58.222Z,9.20
2019-02-18T03:10:58.207Z,9.40
2019-02-18T03:11:58.191Z,10.00
2019-02-18T03:12:58.173Z,10.20
2019-02-18T03:13:58.159Z,9.90
2019-02-18T03:14:58.139Z,8.60
2019-02-18T03:15:58.124Z,9.50
2019-02-18T03:16:58.108Z,9.80
2019-02-18T03:17:58.093Z,10.00
2019-02-18T03:18:58.075Z,11.10
2019-02-18T03:19:58.067Z,8.60
2019-02-18T03:20:58.043Z,9.70
2019-02-18T03:21:58.031Z,8.40
2019-02-18T03:22:58.009Z,10.40
2019-02-18T03:23:57.998Z,8.80
2019-02-18T03:24:57.985Z,9.70
2019-02-18T03:25:57.962Z,9.60
2019-02-18T03:26:57.942Z,9.00
2019-02-18T03:27:57.941Z,10.10
2019-02-18T03:28:57.923Z,9.40
2019-02-18T03:29:57.895Z,11.40
2019-02-18T03:30:57.878Z,9.00
2019-02-18T03:31:57.865Z,8.90
2019-02-18T03:32:57.847Z,10.40
2019-02-18T03:33:57.828Z,8.70
2019-02-18T03:35:00.476Z,9.80
2019-02-18T03:35:57.795Z,11.80
2019-02-18T03:36:57.780Z,9.30
2019-02-18T03:37:57.762Z,10.00
2019-02-18T03:38:57.745Z,8.60
2019-02-18T03:39:57.728Z,10.60
2019-02-18T03:41:03.130Z,10.80
2019-02-18T03:41:57.696Z,9.70
2019-02-18T03:42:57.681Z,8.90
2019-02-18T03:43:57.664Z,11.70
2019-02-18T03:44:57.647Z,11.10
2019-02-18T03:45:57.631Z,10.20
2019-02-18T03:46:57.611Z,11.50
2019-02-18T03:47:57.598Z,10.50
2019-02-18T03:48:57.579Z,10.20
2019-02-18T03:49:57.566Z,8.80
2019-02-18T03:50:57.547Z,11.20
2019-02-18T03:51:57.530Z,9.30
2019-02-18T03:52:57.514Z,9.20
2019-02-18T03:53:57.504Z,9.40
2019-02-18T03:54:57.479Z,10.10
2019-02-18T03:55:57.464Z,9.30
2019-02-18T03:56:57.447Z,8.80
2019-02-18T03:57:57.432Z,10.10
2019-02-18T03:58:57.415Z,9.60
2019-02-18T03:59:57.398Z,8.40
2019-02-18T04:00:57.381Z,8.30
2019-02-18T04:01:57.366Z,9.30
2019-02-18T04:02:57.348Z,9.90
2019-02-18T04:03:57.330Z,11.70
2019-02-18T04:04:57.313Z,10.90
2019-02-18T04:05:57.306Z,9.30
2019-02-18T04:06:57.285Z,11.30
2019-02-18T04:07:57.265Z,10.50
2019-02-18T04:08:57.249Z,10.10
2019-02-18T04:09:57.230Z,9.80
2019-02-18T04:10:57.213Z,8.80
2019-02-18T04:11:57.199Z,10.80
2019-02-18T04:12:57.183Z,9.80
2019-02-18T04:13:57.166Z,9.50
2019-02-18T04:14:57.149Z,9.70
2019-02-18T04:15:57.134Z,9.00
2019-02-18T04:16:57.113Z,10.10
2019-02-18T04:17:57.101Z,12.30
2019-02-18T04:18:57.083Z,9.40
2019-02-18T04:19:57.065Z,12.00
2019-02-18T04:20:57.051Z,10.70
2019-02-18T04:21:57.032Z,10.90
2019-02-18T04:22:57.014Z,11.70
2019-02-18T04:23:57.001Z,11.80
2019-02-18T04:24:56.979Z,12.30
2019-02-18T04:25:56.963Z,12.30
2019-02-18T04:26:56.946Z,10.70
2019-02-18T04:27:56.932Z,9.80
2019-02-18T04:28:56.913Z,10.00
2019-02-18T04:29:56.896Z,10.80
2019-02-18T04:30:56.897Z,10.30
2019-02-18T04:31:56.867Z,11.10
2019-02-18T04:32:56.847Z,10.60
2019-02-18T04:33:56.835Z,13.50
2019-02-18T04:34:56.818Z,12.60
2019-02-18T04:35:56.796Z,13.20
2019-02-18T04:36:56.780Z,10.30
2019-02-18T04:37:56.766Z,10.60
2019-02-18T04:38:56.745Z,11.30
2019-02-18T04:39:56.729Z,10.60
2019-02-18T04:40:56.714Z,9.80
2019-02-18T04:41:56.697Z,12.70
2019-02-18T04:42:56.678Z,10.40
2019-02-18T04:43:56.669Z,11.50
2019-02-18T04:44:56.646Z,9.40
2019-02-18T04:45:56.634Z,9.50
2019-02-18T04:46:56.611Z,11.50
2019-02-18T04:47:56.596Z,10.60
2019-02-18T04:48:56.617Z,9.60
2019-02-18T04:49:56.564Z,11.10
2019-02-18T04:50:56.546Z,11.80
2019-02-18T04:51:56.527Z,11.10
2019-02-18T04:52:56.514Z,11.00
2019-02-18T04:53:56.496Z,11.30
2019-02-18T04:54:56.479Z,12.50
2019-02-18T04:55:56.461Z,10.10
2019-02-18T04:56:56.445Z,10.20
2019-02-18T04:57:56.427Z,11.10
2019-02-18T04:58:56.409Z,10.00
2019-02-18T04:59:56.391Z,10.50
2019-02-18T05:00:56.375Z,10.00
2019-02-18T05:01:56.363Z,10.80
2019-02-18T05:02:56.349Z,12.00
2019-02-18T05:03:56.325Z,10.90
2019-02-18T05:04:56.308Z,12.70
2019-02-18T05:05:57.937Z,10.00
2019-02-18T05:06:56.277Z,10.00
2019-02-18T05:07:56.262Z,9.80
2019-02-18T05:09:05.067Z,9.40
2019-02-18T05:09:56.228Z,10.00
2019-02-18T05:10:56.210Z,13.20
2019-02-18T05:11:56.191Z,10.10
2019-02-18T05:12:56.177Z,9.80
2019-02-18T05:13:56.160Z,9.40
2019-02-18T05:14:56.143Z,9.50
2019-02-18T05:15:56.127Z,10.70
2019-02-18T05:16:56.107Z,10.70
2019-02-18T05:17:56.142Z,10.80
2019-02-18T05:18:56.074Z,10.80
2019-02-18T05:19:56.059Z,10.70
2019-02-18T05:20:56.044Z,10.20
2019-02-18T05:21:56.025Z,10.10
2019-02-18T05:22:56.007Z,10.90
2019-02-18T05:23:55.992Z,10.00
2019-02-18T05:24:55.984Z,10.20
2019-02-18T05:25:55.959Z,12.00
2019-02-18T05:26:55.940Z,10.30
2019-02-18T05:27:55.926Z,13.50
2019-02-18T05:28:55.908Z,10.40
2019-02-18T05:29:55.891Z,11.50
2019-02-18T05:30:55.873Z,9.70
2019-02-18T05:31:55.858Z,10.10
2019-02-18T05:32:55.890Z,10.90
2019-02-18T05:33:55.823Z,11.00
2019-02-18T05:34:55.808Z,12.80
2019-02-18T05:35:56.079Z,10.90
2019-02-18T05:36:55.775Z,10.30
2019-02-18T05:37:55.756Z,11.00
2019-02-18T05:38:55.739Z,13.70
2019-02-18T05:39:55.723Z,12.00
2019-02-18T05:40:55.705Z,10.70
2019-02-18T05:41:55.690Z,12.20
2019-02-18T05:42:55.674Z,11.30
2019-02-18T05:43:55.658Z,11.30
2019-02-18T05:44:55.638Z,10.40
2019-02-18T05:45:55.622Z,8.80
2019-02-18T05:46:55.603Z,10.80
2019-02-18T05:47:55.589Z,10.60
2019-02-18T05:48:55.577Z,12.30
2019-02-18T05:49:55.554Z,11.40
2019-02-18T05:50:55.534Z,12.50
2019-02-18T05:51:55.520Z,11.30
2019-02-18T05:52:55.506Z,10.60
2019-02-18T05:53:55.488Z,10.70
2019-02-18T05:54:55.472Z,11.90
2019-02-18T05:55:55.453Z,10.80
2019-02-18T05:56:55.437Z,11.50
2019-02-18T05:57:55.419Z,11.70
2019-02-18T05:58:55.402Z,10.90
2019-02-18T05:59:55.387Z,14.30
2019-02-18T06:00:55.374Z,15.40
2019-02-18T06:01:55.353Z,14.30
2019-02-18T06:02:55.332Z,12.90
2019-02-18T06:03:55.317Z,13.50
2019-02-18T06:04:55.300Z,11.40
2019-02-18T06:05:55.289Z,12.10
2019-02-18T06:06:55.269Z,12.20
2019-02-18T06:07:55.253Z,12.30
2019-02-18T06:08:55.245Z,13.30
2019-02-18T06:09:55.219Z,11.70
2019-02-18T06:10:55.199Z,10.30
2019-02-18T06:11:55.186Z,10.90
2019-02-18T06:12:55.165Z,10.10
2019-02-18T06:13:55.152Z,10.30
2019-02-18T06:14:55.130Z,12.10
2019-02-18T06:15:55.114Z,10.80
2019-02-18T06:16:55.100Z,11.30
2019-02-18T06:17:55.084Z,11.80
2019-02-18T06:18:55.066Z,12.40
2019-02-18T06:19:55.049Z,9.60
2019-02-18T06:20:55.030Z,10.20
2019-02-18T06:21:55.015Z,9.30
2019-02-18T06:22:54.997Z,10.10
2019-02-18T06:23:54.993Z,11.50
2019-02-18T06:24:54.966Z,12.50
2019-02-18T06:25:54.948Z,11.70
2019-02-18T06:26:54.931Z,11.70
2019-02-18T06:27:54.913Z,13.10
2019-02-18T06:28:54.894Z,9.30
2019-02-18T06:29:54.879Z,12.50
2019-02-18T06:30:55.106Z,12.10
2019-02-18T06:31:54.843Z,10.10
2019-02-18T06:32:54.829Z,10.80
2019-02-18T06:33:54.811Z,10.80
2019-02-18T06:34:54.792Z,12.00
2019-02-18T06:35:54.778Z,11.90
2019-02-18T06:36:54.760Z,11.50
2019-02-18T06:37:54.741Z,10.60
2019-02-18T06:38:54.767Z,11.10
2019-02-18T06:39:54.758Z,9.40
2019-02-18T06:40:54.693Z,11.60
2019-02-18T06:41:54.674Z,9.90
2019-02-18T06:42:54.658Z,11.40
2019-02-18T06:43:54.642Z,11.50
2019-02-18T06:44:54.626Z,11.80
2019-02-18T06:45:54.608Z,11.60
2019-02-18T06:46:54.592Z,11.00
2019-02-18T06:47:54.575Z,12.00
2019-02-18T06:48:54.556Z,11.70
2019-02-18T06:49:54.540Z,11.30
2019-02-18T06:50:54.522Z,11.90
2019-02-18T06:51:54.510Z,13.00
2019-02-18T06:52:54.489Z,9.90
2019-02-18T06:53:54.475Z,10.20
2019-02-18T06:54:54.453Z,10.20
2019-02-18T06:55:54.440Z,10.10
2019-02-18T06:56:54.420Z,12.30
2019-02-18T06:57:54.406Z,10.30
2019-02-18T06:58:54.392Z,12.00
2019-02-18T06:59:54.371Z,10.20
2019-02-18T07:00:54.358Z,10.50
2019-02-18T07:01:54.337Z,12.50
2019-02-18T07:02:54.321Z,11.20
2019-02-18T07:03:54.304Z,12.90
2019-02-18T07:04:54.285Z,10.00
2019-02-18T07:05:54.269Z,10.40
2019-02-18T07:06:54.254Z,9.50
2019-02-18T07:07:54.239Z,12.60
2019-02-18T07:08:56.074Z,13.30
2019-02-18T07:09:54.202Z,13.20
2019-02-18T07:10:54.186Z,10.80
2019-02-18T07:11:54.166Z,12.90
2019-02-18T07:12:54.150Z,9.80
2019-02-18T07:13:54.136Z,11.90
2019-02-18T07:14:54.120Z,11.10
2019-02-18T07:15:54.099Z,11.50
2019-02-18T07:16:54.083Z,12.90
2019-02-18T07:17:54.067Z,11.30
2019-02-18T07:18:54.051Z,14.40
2019-02-18T07:19:54.034Z,13.10
2019-02-18T07:20:54.017Z,11.30
2019-02-18T07:21:54.000Z,13.30
2019-02-18T07:22:53.984Z,11.80
2019-02-18T07:23:53.965Z,12.00
2019-02-18T07:24:53.952Z,12.70
2019-02-18T07:25:53.935Z,13.10
2019-02-18T07:26:53.918Z,13.50
2019-02-18T07:27:53.905Z,14.40
2019-02-18T07:28:53.881Z,14.20
2019-02-18T07:29:53.867Z,13.20
2019-02-18T07:30:53.849Z,13.40
2019-02-18T07:31:53.833Z,13.20
2019-02-18T07:32:53.821Z,12.80
2019-02-18T07:33:53.801Z,15.10
2019-02-18T07:34:53.783Z,14.40
2019-02-18T07:35:53.766Z,13.90
2019-02-18T07:36:53.749Z,14.40
2019-02-18T07:37:53.735Z,12.80
2019-02-18T07:38:53.714Z,12.50
2019-02-18T07:40:01.214Z,19.30
2019-02-18T07:40:53.684Z,14.30
2019-02-18T07:41:53.668Z,12.60
2019-02-18T07:42:53.648Z,13.30
2019-02-18T07:43:53.637Z,12.20
2019-02-18T07:44:53.616Z,12.50
2019-02-18T07:45:53.611Z,11.50
2019-02-18T07:46:53.581Z,11.30
2019-02-18T07:47:53.565Z,12.00
2019-02-18T07:48:53.549Z,11.60
2019-02-18T07:49:53.534Z,10.90
2019-02-18T07:50:53.517Z,11.70
2019-02-18T07:51:53.499Z,12.50
2019-02-18T07:52:53.483Z,11.70
2019-02-18T07:53:53.466Z,12.60
2019-02-18T07:54:53.450Z,12.90
2019-02-18T07:55:53.432Z,12.20
2019-02-18T07:56:53.417Z,12.70
2019-02-18T07:57:53.402Z,12.70
2019-02-18T07:58:53.386Z,14.00
2019-02-18T07:59:53.366Z,12.30
2019-02-18T08:00:53.352Z,12.00
2019-02-18T08:01:53.356Z,12.50
2019-02-18T08:02:53.317Z,11.90
2019-02-18T08:03:53.302Z,12.90
2019-02-18T08:04:53.285Z,13.20
2019-02-18T08:05:53.270Z,12.60
2019-02-18T08:06:53.254Z,11.80
2019-02-18T08:07:53.241Z,13.00
2019-02-18T08:08:53.220Z,13.20
2019-02-18T08:09:53.207Z,14.30
2019-02-18T08:10:53.188Z,12.20
2019-02-18T08:11:53.173Z,13.00
2019-02-18T08:12:53.160Z,12.50
2019-02-18T08:13:53.140Z,10.70
2019-02-18T08:14:53.121Z,13.40
2019-02-18T08:15:53.110Z,13.40
2019-02-18T08:16:53.091Z,11.30
2019-02-18T08:17:53.084Z,11.00
2019-02-18T08:18:53.059Z,12.80
2019-02-18T08:19:53.043Z,11.30
2019-02-18T08:20:53.029Z,10.90
2019-02-18T08:21:53.010Z,11.80
2019-02-18T08:22:52.995Z,11.00
2019-02-18T08:23:59.646Z,12.10
2019-02-18T08:24:52.963Z,10.20
2019-02-18T08:25:52.948Z,11.30
2019-02-18T08:26:52.932Z,11.30
2019-02-18T08:27:52.917Z,10.90
2019-02-18T08:28:52.901Z,11.40
2019-02-18T08:29:52.886Z,11.90
2019-02-18T08:30:52.868Z,10.50
2019-02-18T08:31:52.856Z,11.70
2019-02-18T08:32:52.838Z,11.80
2019-02-18T08:33:52.823Z,10.60
2019-02-18T08:34:52.806Z,9.30
2019-02-18T08:35:52.791Z,12.10
2019-02-18T08:36:52.776Z,9.90
2019-02-18T08:37:52.763Z,11.70
2019-02-18T08:38:52.747Z,9.80
2019-02-18T08:39:52.731Z,10.60
2019-02-18T08:40:52.717Z,12.40
2019-02-18T08:41:52.699Z,11.90
2019-02-18T08:42:52.682Z,11.50
2019-02-18T08:43:52.670Z,9.80
2019-02-18T08:44:52.657Z,11.40
2019-02-18T08:45:52.640Z,10.00
2019-02-18T08:46:52.624Z,10.50
2019-02-18T08:47:52.611Z,10.60
2019-02-18T08:48:52.597Z,12.70
2019-02-18T08:49:52.579Z,10.30
2019-02-18T08:50:52.561Z,10.50
2019-02-18T08:51:52.551Z,10.80
2019-02-18T08:52:52.534Z,10.20
2019-02-18T08:53:52.521Z,13.50
2019-02-18T08:54:56.512Z,11.30
2019-02-18T08:55:52.488Z,12.20
2019-02-18T08:56:52.473Z,10.40
2019-02-18T08:57:52.460Z,11.00
2019-02-18T08:58:52.444Z,10.90
2019-02-18T08:59:52.430Z,10.50
2019-02-18T09:01:02.028Z,10.20
2019-02-18T09:01:52.399Z,10.80
2019-02-18T09:02:52.387Z,14.30
2019-02-18T09:03:52.371Z,11.30
2019-02-18T09:04:52.358Z,10.40
2019-02-18T09:05:52.342Z,11.70
2019-02-18T09:06:52.329Z,10.50
2019-02-18T09:07:52.313Z,11.70
2019-02-18T09:08:52.299Z,9.90
2019-02-18T09:09:52.293Z,12.40
2019-02-18T09:10:52.275Z,13.80
2019-02-18T09:11:52.261Z,12.00
2019-02-18T09:12:52.241Z,11.80
2019-02-18T09:13:52.228Z,10.50
2019-02-18T09:14:52.214Z,10.70
2019-02-18T09:15:59.786Z,10.50
2019-02-18T09:16:52.184Z,12.20
2019-02-18T09:17:52.177Z,11.60
2019-02-18T09:18:52.158Z,10.50
2019-02-18T09:19:52.146Z,12.70
2019-02-18T09:20:52.129Z,12.10
2019-02-18T09:21:52.114Z,13.80
2019-02-18T09:22:52.101Z,10.90
2019-02-18T09:23:52.089Z,13.10
2019-02-18T09:24:52.073Z,12.40
2019-02-18T09:25:52.062Z,12.90
2019-02-18T09:26:52.045Z,14.60
2019-02-18T09:27:52.038Z,15.60
2019-02-18T09:28:52.020Z,11.70
2019-02-18T09:29:52.007Z,11.80
2019-02-18T09:30:51.990Z,12.50
2019-02-18T09:31:51.981Z,12.40
2019-02-18T09:32:51.964Z,10.70
2019-02-18T09:33:51.952Z,12.20
2019-02-18T09:34:53.122Z,12.30
2019-02-18T09:35:51.921Z,12.70
2019-02-18T09:36:51.911Z,16.90
2019-02-18T09:37:51.895Z,12.70
2019-02-18T09:38:51.881Z,14.00
2019-02-18T09:39:51.870Z,13.10
2019-02-18T09:40:51.860Z,9.60
2019-02-18T09:41:51.845Z,15.60
2019-02-18T09:42:51.843Z,12.00
2019-02-18T09:43:51.816Z,12.40
2019-02-18T09:44:51.802Z,14.00
2019-02-18T09:45:51.805Z,11.50
2019-02-18T09:46:51.774Z,14.10
2019-02-18T09:47:54.210Z,12.00
2019-02-18T09:48:51.750Z,11.20
2019-02-18T09:49:51.740Z,11.20
2019-02-18T09:50:51.720Z,11.80
2019-02-18T09:51:51.709Z,12.90
2019-02-18T09:52:51.695Z,12.50
2019-02-18T09:53:51.685Z,11.20
2019-02-18T09:54:51.673Z,12.10
2019-02-18T09:55:51.659Z,12.20
2019-02-18T09:56:51.646Z,12.00
2019-02-18T09:57:51.634Z,10.30
2019-02-18T09:58:51.619Z,10.80
2019-02-18T09:59:51.608Z,13.50
2019-02-18T10:00:51.597Z,9.20
2019-02-18T10:01:51.583Z,11.80
2019-02-18T10:02:51.568Z,11.10
2019-02-18T10:03:51.556Z,10.20
2019-02-18T10:04:51.548Z,10.50
2019-02-18T10:05:51.535Z,11.20
2019-02-18T10:06:51.522Z,9.40
2019-02-18T10:07:51.507Z,10.80
2019-02-18T10:08:51.497Z,9.00
2019-02-18T10:09:51.485Z,11.80
2019-02-18T10:10:55.944Z,10.10
2019-02-18T10:11:51.461Z,11.00
2019-02-18T10:12:51.449Z,10.20
2019-02-18T10:13:51.436Z,11.90
2019-02-18T10:14:51.422Z,10.10
2019-02-18T10:15:51.412Z,11.40
2019-02-18T10:16:51.401Z,13.40
2019-02-18T10:17:51.390Z,9.40
2019-02-18T10:18:51.378Z,11.20
2019-02-18T10:19:51.364Z,12.00
2019-02-18T10:20:51.354Z,10.80
2019-02-18T10:21:51.343Z,11.20
2019-02-18T10:22:51.331Z,10.40
2019-02-18T10:23:51.320Z,11.70
2019-02-18T10:24:51.307Z,11.40
2019-02-18T10:25:51.294Z,12.80
2019-02-18T10:26:51.283Z,11.50
2019-02-18T10:27:51.271Z,12.50
2019-02-18T10:28:51.261Z,12.10
2019-02-18T10:29:51.251Z,12.20
2019-02-18T10:30:51.237Z,11.80
2019-02-18T10:31:51.225Z,11.90
2019-02-18T10:32:51.212Z,15.90
2019-02-18T10:33:51.202Z,11.10
2019-02-18T10:34:51.189Z,14.70
2019-02-18T10:35:51.181Z,9.30
2019-02-18T10:36:51.170Z,9.80
2019-02-18T10:37:55.272Z,9.60
2019-02-18T10:38:51.145Z,10.10
2019-02-18T10:39:51.136Z,12.60
2019-02-18T10:40:51.122Z,13.70
2019-02-18T10:41:51.112Z,12.40
2019-02-18T10:42:51.100Z,10.10
2019-02-18T10:43:51.088Z,11.40
2019-02-18T10:44:51.078Z,8.70
2019-02-18T10:45:51.069Z,10.10
2019-02-18T10:46:51.054Z,12.70
2019-02-18T10:47:51.045Z,9.70
2019-02-18T10:48:51.032Z,11.10
2019-02-18T10:49:51.031Z,8.90
2019-02-18T10:50:51.009Z,9.60
2019-02-18T10:51:51.000Z,10.60
2019-02-18T10:52:50.987Z,12.10
2019-02-18T10:53:50.980Z,9.60
2019-02-18T10:54:50.975Z,11.30
2019-02-18T10:55:50.957Z,9.30
2019-02-18T10:56:50.946Z,9.30
2019-02-18T10:57:50.934Z,9.70
2019-02-18T10:58:50.922Z,10.10
2019-02-18T10:59:50.914Z,13.00
2019-02-18T11:00:50.902Z,11.50
2019-02-18T11:01:50.892Z,12.90
2019-02-18T11:02:50.881Z,11.00
2019-02-18T11:03:50.874Z,10.20
2019-02-18T11:04:50.858Z,10.80
2019-02-18T11:05:50.849Z,10.70
2019-02-18T11:06:50.838Z,12.10
2019-02-18T11:07:50.832Z,11.10
2019-02-18T11:08:50.820Z,12.10
2019-02-18T11:09:50.808Z,11.00
2019-02-18T11:10:50.798Z,10.80
2019-02-18T11:11:50.789Z,12.80
2019-02-18T11:12:50.787Z,11.60
2019-02-18T11:13:50.768Z,10.00
2019-02-18T11:14:50.757Z,10.90
2019-02-18T11:15:50.747Z,11.40
2019-02-18T11:16:50.738Z,12.60
2019-02-18T11:17:50.726Z,10.80
2019-02-18T11:18:50.719Z,13.70
2019-02-18T11:19:50.707Z,10.40
2019-02-18T11:20:50.695Z,12.50
2019-02-18T11:21:50.689Z,13.10
2019-02-18T11:22:50.674Z,11.40
2019-02-18T11:23:50.665Z,10.60
2019-02-18T11:24:50.657Z,11.60
2019-02-18T11:25:50.646Z,12.90
2019-02-18T11:26:50.634Z,12.20
2019-02-18T11:27:50.624Z,11.00
2019-02-18T11:28:50.617Z,10.70
2019-02-18T11:29:50.608Z,11.70
2019-02-18T11:30:50.593Z,10.50
2019-02-18T11:31:50.584Z,11.60
2019-02-18T11:32:50.580Z,9.40
2019-02-18T11:33:50.567Z,10.80
2019-02-18T11:34:50.554Z,12.40
2019-02-18T11:35:50.547Z,13.60
2019-02-18T11:36:50.542Z,12.40
2019-02-18T11:37:50.528Z,10.20
2019-02-18T11:38:50.515Z,12.40
2019-02-18T11:39:50.517Z,13.20
2019-02-18T11:40:50.497Z,11.80
2019-02-18T11:41:50.488Z,11.50
2019-02-18T11:42:50.476Z,10.30
2019-02-18T11:43:50.470Z,12.30
2019-02-18T11:44:50.459Z,12.50
2019-02-18T11:45:50.455Z,11.20
2019-02-18T11:46:50.440Z,12.60
2019-02-18T11:47:50.439Z,10.30
2019-02-18T11:48:50.419Z,13.30
2019-02-18T11:49:50.411Z,12.00
2019-02-18T11:50:50.401Z,11.80
2019-02-18T11:51:50.392Z,11.60
2019-02-18T11:52:50.385Z,12.30
2019-02-18T11:53:50.375Z,11.90
2019-02-18T11:54:50.366Z,10.80
2019-02-18T11:55:50.361Z,12.40
2019-02-18T11:56:50.347Z,14.00
2019-02-18T11:57:50.340Z,14.00
2019-02-18T11:58:50.330Z,12.80
2019-02-18T11:59:50.318Z,12.20
2019-02-18T12:00:50.316Z,14.10
2019-02-18T12:01:50.302Z,12.50
2019-02-18T12:02:50.293Z,15.00
2019-02-18T12:03:50.280Z,14.10
2019-02-18T12:04:50.277Z,13.90
2019-02-18T12:05:50.267Z,13.40
2019-02-18T12:06:50.257Z,14.80
2019-02-18T12:07:50.246Z,12.70
2019-02-18T12:08:50.239Z,18.10
2019-02-18T12:09:50.229Z,14.60
2019-02-18T12:10:50.219Z,14.40
2019-02-18T12:11:50.211Z,13.00
2019-02-18T12:12:50.205Z,12.60
2019-02-18T12:13:50.191Z,13.60
2019-02-18T12:14:50.188Z,13.30
2019-02-18T12:15:50.173Z,13.30
2019-02-18T12:16:50.164Z,16.80
2019-02-18T12:17:50.163Z,10.80
2019-02-18T12:18:50.149Z,15.40
2019-02-18T12:19:50.138Z,14.60
2019-02-18T12:20:50.128Z,14.50
2019-02-18T12:21:50.118Z,15.00
2019-02-18T12:22:50.111Z,15.40
2019-02-18T12:23:50.102Z,16.00
2019-02-18T12:24:50.094Z,14.90
2019-02-18T12:25:50.084Z,13.20
2019-02-18T12:26:50.074Z,14.60
2019-02-18T12:27:50.068Z,16.40
2019-02-18T12:28:50.164Z,14.80
2019-02-18T12:29:50.049Z,13.60
2019-02-18T12:30:50.041Z,16.50
2019-02-18T12:31:50.036Z,15.60
2019-02-18T12:32:50.028Z,15.50
2019-02-18T12:33:52.007Z,12.20
2019-02-18T12:34:50.005Z,14.90
2019-02-18T12:35:49.999Z,15.40
2019-02-18T12:36:49.987Z,15.50
2019-02-18T12:37:55.273Z,14.90
2019-02-18T12:38:49.971Z,14.10
2019-02-18T12:39:49.965Z,17.10
2019-02-18T12:40:49.958Z,16.90
2019-02-18T12:41:49.947Z,15.00
2019-02-18T12:42:49.937Z,17.50
2019-02-18T12:43:49.935Z,14.50
2019-02-18T12:44:49.924Z,15.70
2019-02-18T12:45:49.916Z,16.40
2019-02-18T12:46:49.904Z,15.40
2019-02-18T12:47:49.895Z,16.60
2019-02-18T12:48:49.888Z,16.70
2019-02-18T12:49:51.046Z,15.70
2019-02-18T12:50:49.873Z,16.30
2019-02-18T12:51:49.865Z,15.90
2019-02-18T12:52:49.857Z,16.90
2019-02-18T12:53:49.849Z,16.20
2019-02-18T12:54:49.900Z,15.80
2019-02-18T12:55:49.829Z,14.90
2019-02-18T12:56:49.824Z,16.20
2019-02-18T12:57:49.819Z,17.40
2019-02-18T12:58:54.563Z,15.60